sensor_id;sensor_type;location;lat;lon;timestamp;P1;durP1;ratioP1;P2;durP2;ratioP2
6951;SDS011;3515;50.138;8.502;2022-08-14T00:00:39;18;;;8;;
6951;SDS011;3515;50.138;8.502;2022-08-14T00:03:05;17;;;8;;
6951;SDS011;3515;50.138;8.502;2022-08-14T00:05:30;16;;;8;;
6951;SDS011;3515;50.138;8.502;2022-08-14T00:07:55;16;;;8;;
6951;SDS011;3515;50.138;8.502;2022-08-14T00:10:21;16;;;8;;
6951;SDS011;3515;50.138;8.502;2022-08-14T00:12:47;17;;;8;;
6951;SDS011;3515;50.138;8.502;2022-08-14T00:15:12;17;;;8;;
6951;SDS011;3515;50.138;8.502;2022-08-14T00:17:36;18;;;8;;
6951;SDS011;3515;50.138;8.502;2022-08-14T00:20:02;18;;;8;;
6951;SDS011;3515;50.138;8.502;2022-08-14T00:22:27;23;;;11;;
6951;SDS011;3515;50.138;8.502;2022-08-14T00:24:52;25;;;12;;
6951;SDS011;3515;50.138;8.502;2022-08-14T00:27:17;25;;;12;;
6951;SDS011;3515;50.138;8.502;2022-08-14T00:29:43;25;;;12;;
6951;SDS011;3515;50.138;8.502;2022-08-14T00:32:08;24;;;12;;
6951;SDS011;3515;50.138;8.502;2022-08-14T00:34:33;23;;;12;;
6951;SDS011;3515;50.138;8.502;2022-08-14T00:36:59;23;;;12;;
6951;SDS011;3515;50.138;8.502;2022-08-14T00:39:24;28;;;14;;
6951;SDS011;3515;50.138;8.502;2022-08-14T00:41:49;23;;;12;;
6951;SDS011;3515;50.138;8.502;2022-08-14T00:44:15;22;;;11;;
6951;SDS011;3515;50.138;8.502;2022-08-14T00:46:40;22;;;11;;
6951;SDS011;3515;50.138;8.502;2022-08-14T00:49:05;22;;;11;;
6951;SDS011;3515;50.138;8.502;2022-08-14T00:51:30;22;;;11;;
6951;SDS011;3515;50.138;8.502;2022-08-14T00:53:56;22;;;11;;
6951;SDS011;3515;50.138;8.502;2022-08-14T00:56:21;22;;;10;;
6951;SDS011;3515;50.138;8.502;2022-08-14T00:58:52;16;;;7;;
6951;SDS011;3515;50.138;8.502;2022-08-14T01:01:16;14;;;7;;
6951;SDS011;3515;50.138;8.502;2022-08-14T01:03:41;13;;;6;;
6951;SDS011;3515;50.138;8.502;2022-08-14T01:06:08;13;;;6;;
6951;SDS011;3515;50.138;8.502;2022-08-14T01:08:32;12;;;6;;
6951;SDS011;3515;50.138;8.502;2022-08-14T01:10:57;12;;;6;;
6951;SDS011;3515;50.138;8.502;2022-08-14T01:13:23;13;;;6;;
6951;SDS011;3515;50.138;8.502;2022-08-14T01:15:49;13;;;6;;
6951;SDS011;3515;50.138;8.502;2022-08-14T01:18:13;14;;;6;;
6951;SDS011;3515;50.138;8.502;2022-08-14T01:20:38;15;;;6;;
6951;SDS011;3515;50.138;8.502;2022-08-14T01:23:05;15;;;6;;
6951;SDS011;3515;50.138;8.502;2022-08-14T01:25:29;16;;;6;;
6951;SDS011;3515;50.138;8.502;2022-08-14T01:27:54;16;;;6;;
6951;SDS011;3515;50.138;8.502;2022-08-14T01:30:20;20;;;8;;
6951;SDS011;3515;50.138;8.502;2022-08-14T01:32:45;20;;;9;;
6951;SDS011;3515;50.138;8.502;2022-08-14T01:35:10;20;;;9;;
6951;SDS011;3515;50.138;8.502;2022-08-14T01:37:36;25;;;11;;
6951;SDS011;3515;50.138;8.502;2022-08-14T01:40:01;30;;;14;;
6951;SDS011;3515;50.138;8.502;2022-08-14T01:42:26;31;;;15;;
6951;SDS011;3515;50.138;8.502;2022-08-14T01:44:51;35;;;17;;
6951;SDS011;3515;50.138;8.502;2022-08-14T01:47:17;36;;;18;;
6951;SDS011;3515;50.138;8.502;2022-08-14T01:49:42;32;;;16;;
6951;SDS011;3515;50.138;8.502;2022-08-14T01:52:07;33;;;16;;
6951;SDS011;3515;50.138;8.502;2022-08-14T01:54:33;32;;;16;;
6951;SDS011;3515;50.138;8.502;2022-08-14T01:56:58;27;;;13;;
6951;SDS011;3515;50.138;8.502;2022-08-14T01:59:24;21;;;10;;
6951;SDS011;3515;50.138;8.502;2022-08-14T02:01:49;21;;;9;;
6951;SDS011;3515;50.138;8.502;2022-08-14T02:04:14;17;;;7;;
6951;SDS011;3515;50.138;8.502;2022-08-14T02:06:39;16;;;6;;
6951;SDS011;3515;50.138;8.502;2022-08-14T02:09:04;15;;;6;;
6951;SDS011;3515;50.138;8.502;2022-08-14T02:11:30;14;;;6;;
6951;SDS011;3515;50.138;8.502;2022-08-14T02:13:56;14;;;6;;
6951;SDS011;3515;50.138;8.502;2022-08-14T02:16:20;14;;;5;;
6951;SDS011;3515;50.138;8.502;2022-08-14T02:18:45;17;;;8;;
6951;SDS011;3515;50.138;8.502;2022-08-14T02:21:11;18;;;8;;
6951;SDS011;3515;50.138;8.502;2022-08-14T02:23:36;18;;;8;;
6951;SDS011;3515;50.138;8.502;2022-08-14T02:26:02;20;;;8;;
6951;SDS011;3515;50.138;8.502;2022-08-14T02:28:26;20;;;8;;
6951;SDS011;3515;50.138;8.502;2022-08-14T02:30:52;20;;;8;;
6951;SDS011;3515;50.138;8.502;2022-08-14T02:33:17;20;;;8;;
6951;SDS011;3515;50.138;8.502;2022-08-14T02:35:42;25;;;11;;
6951;SDS011;3515;50.138;8.502;2022-08-14T02:38:08;21;;;9;;
6951;SDS011;3515;50.138;8.502;2022-08-14T02:40:33;20;;;9;;
6951;SDS011;3515;50.138;8.502;2022-08-14T02:42:58;21;;;9;;
6951;SDS011;3515;50.138;8.502;2022-08-14T02:45:25;20;;;9;;
6951;SDS011;3515;50.138;8.502;2022-08-14T02:47:50;20;;;9;;
6951;SDS011;3515;50.138;8.502;2022-08-14T02:50:16;20;;;9;;
6951;SDS011;3515;50.138;8.502;2022-08-14T02:52:41;20;;;9;;
6951;SDS011;3515;50.138;8.502;2022-08-14T02:55:07;20;;;9;;
6951;SDS011;3515;50.138;8.502;2022-08-14T02:57:32;20;;;9;;
6951;SDS011;3515;50.138;8.502;2022-08-14T02:59:57;20;;;9;;
6951;SDS011;3515;50.138;8.502;2022-08-14T03:02:22;20;;;9;;
6951;SDS011;3515;50.138;8.502;2022-08-14T03:04:48;20;;;9;;
6951;SDS011;3515;50.138;8.502;2022-08-14T03:07:13;21;;;9;;
6951;SDS011;3515;50.138;8.502;2022-08-14T03:09:38;22;;;9;;
6951;SDS011;3515;50.138;8.502;2022-08-14T03:12:04;26;;;11;;
6951;SDS011;3515;50.138;8.502;2022-08-14T03:14:29;22;;;9;;
6951;SDS011;3515;50.138;8.502;2022-08-14T03:16:54;21;;;9;;
6951;SDS011;3515;50.138;8.502;2022-08-14T03:19:19;26;;;11;;
6951;SDS011;3515;50.138;8.502;2022-08-14T03:21:45;25;;;12;;
6951;SDS011;3515;50.138;8.502;2022-08-14T03:24:10;25;;;12;;
6951;SDS011;3515;50.138;8.502;2022-08-14T03:26:36;24;;;12;;
6951;SDS011;3515;50.138;8.502;2022-08-14T03:29:01;22;;;12;;
6951;SDS011;3515;50.138;8.502;2022-08-14T03:31:26;17;;;9;;
6951;SDS011;3515;50.138;8.502;2022-08-14T03:33:51;17;;;9;;
6951;SDS011;3515;50.138;8.502;2022-08-14T03:36:22;17;;;9;;
6951;SDS011;3515;50.138;8.502;2022-08-14T03:38:48;17;;;9;;
6951;SDS011;3515;50.138;8.502;2022-08-14T03:41:13;17;;;9;;
6951;SDS011;3515;50.138;8.502;2022-08-14T03:43:37;17;;;9;;
6951;SDS011;3515;50.138;8.502;2022-08-14T03:46:05;18;;;9;;
6951;SDS011;3515;50.138;8.502;2022-08-14T03:48:30;18;;;9;;
6951;SDS011;3515;50.138;8.502;2022-08-14T03:50:55;17;;;9;;
6951;SDS011;3515;50.138;8.502;2022-08-14T03:53:21;17;;;9;;
6951;SDS011;3515;50.138;8.502;2022-08-14T03:55:46;17;;;8;;
6951;SDS011;3515;50.138;8.502;2022-08-14T03:58:12;13;;;6;;
6951;SDS011;3515;50.138;8.502;2022-08-14T04:00:37;12;;;5;;
6951;SDS011;3515;50.138;8.502;2022-08-14T04:03:02;16;;;8;;
6951;SDS011;3515;50.138;8.502;2022-08-14T04:05:27;16;;;8;;
6951;SDS011;3515;50.138;8.502;2022-08-14T04:07:52;17;;;8;;
6951;SDS011;3515;50.138;8.502;2022-08-14T04:10:18;17;;;9;;
6951;SDS011;3515;50.138;8.502;2022-08-14T04:12:43;17;;;9;;
6951;SDS011;3515;50.138;8.502;2022-08-14T04:15:09;22;;;11;;
6951;SDS011;3515;50.138;8.502;2022-08-14T04:17:34;23;;;12;;
6951;SDS011;3515;50.138;8.502;2022-08-14T04:19:59;23;;;12;;
6951;SDS011;3515;50.138;8.502;2022-08-14T04:22:24;18;;;9;;
6951;SDS011;3515;50.138;8.502;2022-08-14T04:24:49;17;;;9;;
6951;SDS011;3515;50.138;8.502;2022-08-14T04:27:15;17;;;8;;
6951;SDS011;3515;50.138;8.502;2022-08-14T04:29:41;17;;;8;;
6951;SDS011;3515;50.138;8.502;2022-08-14T04:32:06;17;;;8;;
6951;SDS011;3515;50.138;8.502;2022-08-14T04:34:31;12;;;5;;
6951;SDS011;3515;50.138;8.502;2022-08-14T04:36:56;11;;;5;;
6951;SDS011;3515;50.138;8.502;2022-08-14T04:39:21;10;;;5;;
6951;SDS011;3515;50.138;8.502;2022-08-14T04:41:46;10;;;4;;
6951;SDS011;3515;50.138;8.502;2022-08-14T04:44:12;10;;;5;;
6951;SDS011;3515;50.138;8.502;2022-08-14T04:46:37;10;;;4;;
6951;SDS011;3515;50.138;8.502;2022-08-14T04:49:02;9;;;4;;
6951;SDS011;3515;50.138;8.502;2022-08-14T04:51:27;9;;;4;;
6951;SDS011;3515;50.138;8.502;2022-08-14T04:53:53;9;;;4;;
6951;SDS011;3515;50.138;8.502;2022-08-14T04:56:20;13;;;7;;
6951;SDS011;3515;50.138;8.502;2022-08-14T04:58:43;14;;;8;;
6951;SDS011;3515;50.138;8.502;2022-08-14T05:01:10;15;;;8;;
6951;SDS011;3515;50.138;8.502;2022-08-14T05:03:34;15;;;8;;
6951;SDS011;3515;50.138;8.502;2022-08-14T05:06:00;15;;;9;;
6951;SDS011;3515;50.138;8.502;2022-08-14T05:08:24;16;;;9;;
6951;SDS011;3515;50.138;8.502;2022-08-14T05:10:50;18;;;9;;
6951;SDS011;3515;50.138;8.502;2022-08-14T05:13:15;18;;;9;;
6951;SDS011;3515;50.138;8.502;2022-08-14T05:15:40;14;;;7;;
6951;SDS011;3515;50.138;8.502;2022-08-14T05:18:07;14;;;7;;
6951;SDS011;3515;50.138;8.502;2022-08-14T05:20:31;14;;;7;;
6951;SDS011;3515;50.138;8.502;2022-08-14T05:22:56;14;;;7;;
6951;SDS011;3515;50.138;8.502;2022-08-14T05:25:21;14;;;6;;
6951;SDS011;3515;50.138;8.502;2022-08-14T05:27:46;14;;;7;;
6951;SDS011;3515;50.138;8.502;2022-08-14T05:30:12;13;;;6;;
6951;SDS011;3515;50.138;8.502;2022-08-14T05:32:37;13;;;6;;
6951;SDS011;3515;50.138;8.502;2022-08-14T05:35:02;13;;;7;;
6951;SDS011;3515;50.138;8.502;2022-08-14T05:37:28;13;;;7;;
6951;SDS011;3515;50.138;8.502;2022-08-14T05:39:53;13;;;7;;
6951;SDS011;3515;50.138;8.502;2022-08-14T05:42:18;14;;;7;;
6951;SDS011;3515;50.138;8.502;2022-08-14T05:44:43;14;;;7;;
6951;SDS011;3515;50.138;8.502;2022-08-14T05:47:08;14;;;7;;
6951;SDS011;3515;50.138;8.502;2022-08-14T05:49:34;14;;;7;;
6951;SDS011;3515;50.138;8.502;2022-08-14T05:51:59;15;;;7;;
6951;SDS011;3515;50.138;8.502;2022-08-14T05:54:24;15;;;7;;
6951;SDS011;3515;50.138;8.502;2022-08-14T05:56:49;15;;;8;;
6951;SDS011;3515;50.138;8.502;2022-08-14T05:59:15;16;;;8;;
6951;SDS011;3515;50.138;8.502;2022-08-14T06:01:40;16;;;8;;
6951;SDS011;3515;50.138;8.502;2022-08-14T06:04:05;16;;;8;;
6951;SDS011;3515;50.138;8.502;2022-08-14T06:06:30;16;;;8;;
6951;SDS011;3515;50.138;8.502;2022-08-14T06:08:56;16;;;8;;
6951;SDS011;3515;50.138;8.502;2022-08-14T06:11:21;21;;;11;;
6951;SDS011;3515;50.138;8.502;2022-08-14T06:13:46;22;;;11;;
6951;SDS011;3515;50.138;8.502;2022-08-14T06:16:13;23;;;12;;
6951;SDS011;3515;50.138;8.502;2022-08-14T06:18:37;24;;;13;;
6951;SDS011;3515;50.138;8.502;2022-08-14T06:21:03;25;;;13;;
6951;SDS011;3515;50.138;8.502;2022-08-14T06:23:28;30;;;16;;
6951;SDS011;3515;50.138;8.502;2022-08-14T06:25:53;31;;;17;;
6951;SDS011;3515;50.138;8.502;2022-08-14T06:28:19;32;;;17;;
6951;SDS011;3515;50.138;8.502;2022-08-14T06:30:43;29;;;15;;
6951;SDS011;3515;50.138;8.502;2022-08-14T06:33:09;29;;;15;;
6951;SDS011;3515;50.138;8.502;2022-08-14T06:35:34;29;;;15;;
6951;SDS011;3515;50.138;8.502;2022-08-14T06:37:59;30;;;15;;
6951;SDS011;3515;50.138;8.502;2022-08-14T06:40:25;32;;;16;;
6951;SDS011;3515;50.138;8.502;2022-08-14T06:42:50;29;;;15;;
6951;SDS011;3515;50.138;8.502;2022-08-14T06:45:15;30;;;15;;
6951;SDS011;3515;50.138;8.502;2022-08-14T06:47:41;33;;;16;;
6951;SDS011;3515;50.138;8.502;2022-08-14T06:50:07;34;;;17;;
6951;SDS011;3515;50.138;8.502;2022-08-14T06:52:31;36;;;17;;
6951;SDS011;3515;50.138;8.502;2022-08-14T06:54:56;37;;;18;;
6951;SDS011;3515;50.138;8.502;2022-08-14T06:57:21;39;;;18;;
6951;SDS011;3515;50.138;8.502;2022-08-14T06:59:46;39;;;18;;
6951;SDS011;3515;50.138;8.502;2022-08-14T07:02:12;40;;;17;;
6951;SDS011;3515;50.138;8.502;2022-08-14T07:04:37;42;;;18;;
6951;SDS011;3515;50.138;8.502;2022-08-14T07:07:02;43;;;18;;
6951;SDS011;3515;50.138;8.502;2022-08-14T07:09:27;44;;;18;;
6951;SDS011;3515;50.138;8.502;2022-08-14T07:11:53;45;;;18;;
6951;SDS011;3515;50.138;8.502;2022-08-14T07:14:18;45;;;18;;
6951;SDS011;3515;50.138;8.502;2022-08-14T07:16:43;45;;;18;;
6951;SDS011;3515;50.138;8.502;2022-08-14T07:19:09;45;;;18;;
6951;SDS011;3515;50.138;8.502;2022-08-14T07:21:34;45;;;18;;
6951;SDS011;3515;50.138;8.502;2022-08-14T07:23:59;44;;;18;;
6951;SDS011;3515;50.138;8.502;2022-08-14T07:26:24;44;;;18;;
6951;SDS011;3515;50.138;8.502;2022-08-14T07:28:55;42;;;17;;
6951;SDS011;3515;50.138;8.502;2022-08-14T07:31:20;48;;;20;;
6951;SDS011;3515;50.138;8.502;2022-08-14T07:33:46;48;;;20;;
6951;SDS011;3515;50.138;8.502;2022-08-14T07:36:12;48;;;20;;
6951;SDS011;3515;50.138;8.502;2022-08-14T07:38:36;50;;;21;;
6951;SDS011;3515;50.138;8.502;2022-08-14T07:41:02;51;;;21;;
6951;SDS011;3515;50.138;8.502;2022-08-14T07:43:27;51;;;21;;
6951;SDS011;3515;50.138;8.502;2022-08-14T07:45:52;50;;;21;;
6951;SDS011;3515;50.138;8.502;2022-08-14T07:48:17;51;;;22;;
6951;SDS011;3515;50.138;8.502;2022-08-14T07:50:42;45;;;18;;
6951;SDS011;3515;50.138;8.502;2022-08-14T07:53:08;52;;;22;;
6951;SDS011;3515;50.138;8.502;2022-08-14T07:55:33;49;;;21;;
6951;SDS011;3515;50.138;8.502;2022-08-14T07:57:58;47;;;20;;
6951;SDS011;3515;50.138;8.502;2022-08-14T08:00:24;46;;;19;;
6951;SDS011;3515;50.138;8.502;2022-08-14T08:02:49;46;;;19;;
6951;SDS011;3515;50.138;8.502;2022-08-14T08:05:14;48;;;20;;
6951;SDS011;3515;50.138;8.502;2022-08-14T08:07:40;47;;;20;;
6951;SDS011;3515;50.138;8.502;2022-08-14T08:10:06;46;;;19;;
6951;SDS011;3515;50.138;8.502;2022-08-14T08:12:30;39;;;15;;
6951;SDS011;3515;50.138;8.502;2022-08-14T08:14:55;44;;;17;;
6951;SDS011;3515;50.138;8.502;2022-08-14T08:17:21;44;;;17;;
6951;SDS011;3515;50.138;8.502;2022-08-14T08:19:46;44;;;17;;
6951;SDS011;3515;50.138;8.502;2022-08-14T08:22:11;43;;;17;;
6951;SDS011;3515;50.138;8.502;2022-08-14T08:24:36;41;;;16;;
6951;SDS011;3515;50.138;8.502;2022-08-14T08:27:01;42;;;17;;
6951;SDS011;3515;50.138;8.502;2022-08-14T08:29:27;40;;;16;;
6951;SDS011;3515;50.138;8.502;2022-08-14T08:31:52;40;;;16;;
6951;SDS011;3515;50.138;8.502;2022-08-14T08:34:17;37;;;15;;
6951;SDS011;3515;50.138;8.502;2022-08-14T08:36:42;35;;;14;;
6951;SDS011;3515;50.138;8.502;2022-08-14T08:39:08;36;;;15;;
6951;SDS011;3515;50.138;8.502;2022-08-14T08:41:41;37;;;15;;
6951;SDS011;3515;50.138;8.502;2022-08-14T08:44:02;37;;;15;;
6951;SDS011;3515;50.138;8.502;2022-08-14T08:46:23;36;;;14;;
6951;SDS011;3515;50.138;8.502;2022-08-14T08:48:49;38;;;15;;
6951;SDS011;3515;50.138;8.502;2022-08-14T08:53:39;41;;;17;;
6951;SDS011;3515;50.138;8.502;2022-08-14T08:56:05;42;;;17;;
6951;SDS011;3515;50.138;8.502;2022-08-14T08:58:30;42;;;17;;
6951;SDS011;3515;50.138;8.502;2022-08-14T09:00:56;42;;;17;;
6951;SDS011;3515;50.138;8.502;2022-08-14T09:03:21;42;;;17;;
6951;SDS011;3515;50.138;8.502;2022-08-14T09:05:50;44;;;18;;
6951;SDS011;3515;50.138;8.502;2022-08-14T09:08:12;42;;;17;;
6951;SDS011;3515;50.138;8.502;2022-08-14T09:10:36;42;;;17;;
6951;SDS011;3515;50.138;8.502;2022-08-14T09:13:02;42;;;17;;
6951;SDS011;3515;50.138;8.502;2022-08-14T09:15:27;46;;;18;;
6951;SDS011;3515;50.138;8.502;2022-08-14T09:17:52;46;;;18;;
6951;SDS011;3515;50.138;8.502;2022-08-14T09:20:17;42;;;16;;
6951;SDS011;3515;50.138;8.502;2022-08-14T09:22:42;38;;;15;;
6951;SDS011;3515;50.138;8.502;2022-08-14T09:25:08;35;;;14;;
6951;SDS011;3515;50.138;8.502;2022-08-14T09:27:35;35;;;13;;
6951;SDS011;3515;50.138;8.502;2022-08-14T09:29:58;34;;;13;;
6951;SDS011;3515;50.138;8.502;2022-08-14T09:32:26;37;;;15;;
6951;SDS011;3515;50.138;8.502;2022-08-14T09:34:52;32;;;13;;
6951;SDS011;3515;50.138;8.502;2022-08-14T09:37:20;30;;;12;;
6951;SDS011;3515;50.138;8.502;2022-08-14T09:39:42;34;;;14;;
6951;SDS011;3515;50.138;8.502;2022-08-14T09:42:12;41;;;16;;
6951;SDS011;3515;50.138;8.502;2022-08-14T09:44:38;42;;;17;;
6951;SDS011;3515;50.138;8.502;2022-08-14T09:46:56;43;;;17;;
6951;SDS011;3515;50.138;8.502;2022-08-14T09:49:28;45;;;18;;
6951;SDS011;3515;50.138;8.502;2022-08-14T09:51:46;43;;;17;;
6951;SDS011;3515;50.138;8.502;2022-08-14T09:54:11;47;;;18;;
6951;SDS011;3515;50.138;8.502;2022-08-14T09:56:44;47;;;19;;
6951;SDS011;3515;50.138;8.502;2022-08-14T09:59:09;49;;;19;;
6951;SDS011;3515;50.138;8.502;2022-08-14T10:01:34;44;;;18;;
6951;SDS011;3515;50.138;8.502;2022-08-14T10:03:53;43;;;17;;
6951;SDS011;3515;50.138;8.502;2022-08-14T10:06:18;44;;;17;;
6951;SDS011;3515;50.138;8.502;2022-08-14T10:08:45;43;;;17;;
6951;SDS011;3515;50.138;8.502;2022-08-14T10:11:12;41;;;16;;
6951;SDS011;3515;50.138;8.502;2022-08-14T10:13:33;38;;;15;;
6951;SDS011;3515;50.138;8.502;2022-08-14T10:15:58;37;;;14;;
6951;SDS011;3515;50.138;8.502;2022-08-14T10:18:25;36;;;14;;
6951;SDS011;3515;50.138;8.502;2022-08-14T10:20:53;38;;;14;;
6951;SDS011;3515;50.138;8.502;2022-08-14T10:23:15;39;;;15;;
6951;SDS011;3515;50.138;8.502;2022-08-14T10:25:41;39;;;15;;
6951;SDS011;3515;50.138;8.502;2022-08-14T10:28:05;40;;;15;;
6951;SDS011;3515;50.138;8.502;2022-08-14T10:30:32;41;;;16;;
6951;SDS011;3515;50.138;8.502;2022-08-14T10:32:55;43;;;16;;
6951;SDS011;3515;50.138;8.502;2022-08-14T10:35:21;45;;;17;;
6951;SDS011;3515;50.138;8.502;2022-08-14T10:37:46;45;;;18;;
6951;SDS011;3515;50.138;8.502;2022-08-14T10:40:12;45;;;18;;
6951;SDS011;3515;50.138;8.502;2022-08-14T10:42:37;44;;;17;;
6951;SDS011;3515;50.138;8.502;2022-08-14T10:45:02;44;;;17;;
6951;SDS011;3515;50.138;8.502;2022-08-14T10:47:33;43;;;17;;
6951;SDS011;3515;50.138;8.502;2022-08-14T10:49:55;42;;;16;;
6951;SDS011;3515;50.138;8.502;2022-08-14T10:52:18;39;;;15;;
6951;SDS011;3515;50.138;8.502;2022-08-14T10:54:43;39;;;15;;
6951;SDS011;3515;50.138;8.502;2022-08-14T10:57:11;37;;;14;;
6951;SDS011;3515;50.138;8.502;2022-08-14T10:59:40;37;;;14;;
6951;SDS011;3515;50.138;8.502;2022-08-14T11:01:58;38;;;14;;
6951;SDS011;3515;50.138;8.502;2022-08-14T11:04:24;36;;;14;;
6951;SDS011;3515;50.138;8.502;2022-08-14T11:06:51;38;;;14;;
6951;SDS011;3515;50.138;8.502;2022-08-14T11:09:14;38;;;14;;
6951;SDS011;3515;50.138;8.502;2022-08-14T11:11:41;40;;;15;;
6951;SDS011;3515;50.138;8.502;2022-08-14T11:14:05;39;;;15;;
6951;SDS011;3515;50.138;8.502;2022-08-14T11:16:30;41;;;16;;
6951;SDS011;3515;50.138;8.502;2022-08-14T11:18:55;40;;;15;;
6951;SDS011;3515;50.138;8.502;2022-08-14T11:21:26;40;;;16;;
6951;SDS011;3515;50.138;8.502;2022-08-14T11:23:51;48;;;20;;
6951;SDS011;3515;50.138;8.502;2022-08-14T11:26:16;49;;;20;;
6951;SDS011;3515;50.138;8.502;2022-08-14T11:28:41;48;;;19;;
6951;SDS011;3515;50.138;8.502;2022-08-14T11:31:08;48;;;19;;
6951;SDS011;3515;50.138;8.502;2022-08-14T11:33:32;48;;;20;;
6951;SDS011;3515;50.138;8.502;2022-08-14T11:35:57;50;;;21;;
6951;SDS011;3515;50.138;8.502;2022-08-14T11:38:22;51;;;21;;
6951;SDS011;3515;50.138;8.502;2022-08-14T11:40:48;51;;;21;;
6951;SDS011;3515;50.138;8.502;2022-08-14T11:43:13;46;;;18;;
6951;SDS011;3515;50.138;8.502;2022-08-14T11:45:38;44;;;17;;
6951;SDS011;3515;50.138;8.502;2022-08-14T11:48:13;45;;;18;;
6951;SDS011;3515;50.138;8.502;2022-08-14T11:50:30;46;;;18;;
6951;SDS011;3515;50.138;8.502;2022-08-14T11:52:54;46;;;18;;
6951;SDS011;3515;50.138;8.502;2022-08-14T11:55:19;44;;;17;;
6951;SDS011;3515;50.138;8.502;2022-08-14T11:57:45;44;;;17;;
6951;SDS011;3515;50.138;8.502;2022-08-14T12:00:11;44;;;17;;
6951;SDS011;3515;50.138;8.502;2022-08-14T12:02:35;43;;;17;;
6951;SDS011;3515;50.138;8.502;2022-08-14T12:05:01;52;;;21;;
6951;SDS011;3515;50.138;8.502;2022-08-14T12:07:26;54;;;22;;
6951;SDS011;3515;50.138;8.502;2022-08-14T12:09:52;53;;;22;;
6951;SDS011;3515;50.138;8.502;2022-08-14T12:12:17;54;;;22;;
6951;SDS011;3515;50.138;8.502;2022-08-14T12:14:50;57;;;23;;
6951;SDS011;3515;50.138;8.502;2022-08-14T12:17:07;66;;;28;;
6951;SDS011;3515;50.138;8.502;2022-08-14T12:19:42;67;;;27;;
6951;SDS011;3515;50.138;8.502;2022-08-14T12:21:58;68;;;28;;
6951;SDS011;3515;50.138;8.502;2022-08-14T12:24:26;61;;;24;;
6951;SDS011;3515;50.138;8.502;2022-08-14T12:26:52;62;;;24;;
6951;SDS011;3515;50.138;8.502;2022-08-14T12:29:14;62;;;24;;
6951;SDS011;3515;50.138;8.502;2022-08-14T12:31:39;61;;;24;;
6951;SDS011;3515;50.138;8.502;2022-08-14T12:34:05;60;;;24;;
6951;SDS011;3515;50.138;8.502;2022-08-14T12:36:29;54;;;21;;
6951;SDS011;3515;50.138;8.502;2022-08-14T12:38:55;54;;;21;;
6951;SDS011;3515;50.138;8.502;2022-08-14T12:41:20;54;;;21;;
6951;SDS011;3515;50.138;8.502;2022-08-14T12:43:46;54;;;22;;
6951;SDS011;3515;50.138;8.502;2022-08-14T12:46:19;52;;;21;;
6951;SDS011;3515;50.138;8.502;2022-08-14T12:48:42;52;;;21;;
6951;SDS011;3515;50.138;8.502;2022-08-14T12:51:01;53;;;21;;
6951;SDS011;3515;50.138;8.502;2022-08-14T12:53:32;60;;;25;;
6951;SDS011;3515;50.138;8.502;2022-08-14T12:55:57;58;;;24;;
6951;SDS011;3515;50.138;8.502;2022-08-14T12:58:17;58;;;23;;
6951;SDS011;3515;50.138;8.502;2022-08-14T13:00:46;56;;;23;;
6951;SDS011;3515;50.138;8.502;2022-08-14T13:03:07;55;;;22;;
6951;SDS011;3515;50.138;8.502;2022-08-14T13:05:33;54;;;22;;
6951;SDS011;3515;50.138;8.502;2022-08-14T13:07:59;55;;;22;;
6951;SDS011;3515;50.138;8.502;2022-08-14T13:10:23;54;;;22;;
6951;SDS011;3515;50.138;8.502;2022-08-14T13:12:49;46;;;18;;
6951;SDS011;3515;50.138;8.502;2022-08-14T13:15:14;46;;;19;;
6951;SDS011;3515;50.138;8.502;2022-08-14T13:17:40;45;;;18;;
6951;SDS011;3515;50.138;8.502;2022-08-14T13:20:04;47;;;19;;
6951;SDS011;3515;50.138;8.502;2022-08-14T13:22:30;56;;;23;;
6951;SDS011;3515;50.138;8.502;2022-08-14T13:24:55;58;;;24;;
6951;SDS011;3515;50.138;8.502;2022-08-14T13:27:21;66;;;27;;
6951;SDS011;3515;50.138;8.502;2022-08-14T13:29:45;71;;;29;;
6951;SDS011;3515;50.138;8.502;2022-08-14T13:32:11;78;;;32;;
6951;SDS011;3515;50.138;8.502;2022-08-14T13:34:36;83;;;34;;
6951;SDS011;3515;50.138;8.502;2022-08-14T13:37:01;91;;;37;;
6951;SDS011;3515;50.138;8.502;2022-08-14T13:39:26;95;;;39;;
6951;SDS011;3515;50.138;8.502;2022-08-14T13:41:52;93;;;37;;
6951;SDS011;3515;50.138;8.502;2022-08-14T13:44:17;97;;;39;;
6951;SDS011;3515;50.138;8.502;2022-08-14T13:46:42;95;;;38;;
6951;SDS011;3515;50.138;8.502;2022-08-14T13:49:08;95;;;38;;
6951;SDS011;3515;50.138;8.502;2022-08-14T13:51:34;100;;;40;;
6951;SDS011;3515;50.138;8.502;2022-08-14T13:53:58;99;;;40;;
6951;SDS011;3515;50.138;8.502;2022-08-14T13:56:25;97;;;40;;
6951;SDS011;3515;50.138;8.502;2022-08-14T13:58:49;98;;;40;;
6951;SDS011;3515;50.138;8.502;2022-08-14T14:01:15;97;;;39;;
6951;SDS011;3515;50.138;8.502;2022-08-14T14:03:39;98;;;40;;
6951;SDS011;3515;50.138;8.502;2022-08-14T14:06:05;99;;;41;;
6951;SDS011;3515;50.138;8.502;2022-08-14T14:08:31;98;;;40;;
6951;SDS011;3515;50.138;8.502;2022-08-14T14:10:55;94;;;38;;
6951;SDS011;3515;50.138;8.502;2022-08-14T14:13:21;95;;;39;;
6951;SDS011;3515;50.138;8.502;2022-08-14T14:15:46;96;;;39;;
6951;SDS011;3515;50.138;8.502;2022-08-14T14:18:11;96;;;39;;
6951;SDS011;3515;50.138;8.502;2022-08-14T14:20:36;96;;;39;;
6951;SDS011;3515;50.138;8.502;2022-08-14T14:23:02;94;;;39;;
6951;SDS011;3515;50.138;8.502;2022-08-14T14:25:27;94;;;38;;
6951;SDS011;3515;50.138;8.502;2022-08-14T14:27:52;93;;;38;;
6951;SDS011;3515;50.138;8.502;2022-08-14T14:30:17;91;;;37;;
6951;SDS011;3515;50.138;8.502;2022-08-14T14:32:43;83;;;34;;
6951;SDS011;3515;50.138;8.502;2022-08-14T14:35:09;84;;;35;;
6951;SDS011;3515;50.138;8.502;2022-08-14T14:37:33;80;;;33;;
6951;SDS011;3515;50.138;8.502;2022-08-14T14:39:59;73;;;30;;
6951;SDS011;3515;50.138;8.502;2022-08-14T14:42:27;69;;;28;;
6951;SDS011;3515;50.138;8.502;2022-08-14T14:44:49;62;;;26;;
6951;SDS011;3515;50.138;8.502;2022-08-14T14:47:14;60;;;25;;
6951;SDS011;3515;50.138;8.502;2022-08-14T14:49:40;56;;;23;;
6951;SDS011;3515;50.138;8.502;2022-08-14T14:52:06;58;;;24;;
6951;SDS011;3515;50.138;8.502;2022-08-14T14:54:30;50;;;21;;
6951;SDS011;3515;50.138;8.502;2022-08-14T14:56:55;50;;;21;;
6951;SDS011;3515;50.138;8.502;2022-08-14T14:59:21;50;;;21;;
6951;SDS011;3515;50.138;8.502;2022-08-14T15:01:47;49;;;20;;
6951;SDS011;3515;50.138;8.502;2022-08-14T15:04:12;50;;;21;;
6951;SDS011;3515;50.138;8.502;2022-08-14T15:06:37;48;;;20;;
6951;SDS011;3515;50.138;8.502;2022-08-14T15:09:02;47;;;20;;
6951;SDS011;3515;50.138;8.502;2022-08-14T15:11:27;46;;;19;;
6951;SDS011;3515;50.138;8.502;2022-08-14T15:13:56;46;;;19;;
6951;SDS011;3515;50.138;8.502;2022-08-14T15:16:21;46;;;19;;
6951;SDS011;3515;50.138;8.502;2022-08-14T15:18:46;48;;;20;;
6951;SDS011;3515;50.138;8.502;2022-08-14T15:21:12;57;;;24;;
6951;SDS011;3515;50.138;8.502;2022-08-14T15:23:37;57;;;24;;
6951;SDS011;3515;50.138;8.502;2022-08-14T15:26:02;59;;;25;;
6951;SDS011;3515;50.138;8.502;2022-08-14T15:28:28;60;;;26;;
6951;SDS011;3515;50.138;8.502;2022-08-14T15:30:53;62;;;27;;
6951;SDS011;3515;50.138;8.502;2022-08-14T15:33:18;62;;;27;;
6951;SDS011;3515;50.138;8.502;2022-08-14T15:35:43;61;;;26;;
6951;SDS011;3515;50.138;8.502;2022-08-14T15:38:09;60;;;26;;
6951;SDS011;3515;50.138;8.502;2022-08-14T15:40:35;53;;;22;;
6951;SDS011;3515;50.138;8.502;2022-08-14T15:43:00;60;;;26;;
6951;SDS011;3515;50.138;8.502;2022-08-14T15:45:25;59;;;25;;
6951;SDS011;3515;50.138;8.502;2022-08-14T15:47:50;59;;;25;;
6951;SDS011;3515;50.138;8.502;2022-08-14T15:50:15;57;;;24;;
6951;SDS011;3515;50.138;8.502;2022-08-14T15:52:40;59;;;25;;
6951;SDS011;3515;50.138;8.502;2022-08-14T15:55:07;63;;;26;;
6951;SDS011;3515;50.138;8.502;2022-08-14T15:57:31;63;;;27;;
6951;SDS011;3515;50.138;8.502;2022-08-14T15:59:56;65;;;27;;
6951;SDS011;3515;50.138;8.502;2022-08-14T16:02:22;59;;;24;;
6951;SDS011;3515;50.138;8.502;2022-08-14T16:04:47;60;;;25;;
6951;SDS011;3515;50.138;8.502;2022-08-14T16:07:12;62;;;26;;
6951;SDS011;3515;50.138;8.502;2022-08-14T16:09:37;64;;;27;;